Terminal Aerodrome Forecast
Issued by NWS

Home | Current Version | Previous Version | Text Only | Print | Product List | Glossary Off
Versions: 1 2 3 4 5 6 7 8 9 10 11 12 13 14 15 16 17

000
FTUS43 KICT 242325
TAFSLN
TAF
KSLN 242325Z 2500/2524 36007KT P6SM SKC
     FM250500 20005KT P6SM SKC
     FM251500 21012KT P6SM SCT120=

USA.gov is the U.S. government's official web portal to all federal, state and local government web resources and services.